createdAt,value
2019-01-27T00:02:17.729Z,84.50
2019-01-27T00:04:50.807Z,84.90
2019-01-27T00:07:20.631Z,85.90
2019-01-27T00:09:50.421Z,84.63
2019-01-27T00:12:20.123Z,93.33
2019-01-27T00:14:49.967Z,97.10
2019-01-27T00:17:19.636Z,85.30
2019-01-27T00:19:49.375Z,86.23
2019-01-27T00:22:19.048Z,89.70
2019-01-27T00:24:49.068Z,88.33
2019-01-27T00:27:18.723Z,84.03
2019-01-27T00:29:48.402Z,86.60
2019-01-27T00:32:18.142Z,86.50
2019-01-27T00:34:47.791Z,86.30
2019-01-27T00:37:17.599Z,84.50
2019-01-27T00:39:47.410Z,84.63
2019-01-27T00:42:17.262Z,84.27
2019-01-27T00:44:47.302Z,84.37
2019-01-27T00:47:17.055Z,85.53
2019-01-27T00:49:46.725Z,85.87
2019-01-27T00:52:16.535Z,84.50
2019-01-27T00:58:20.889Z,83.90
2019-01-27T01:00:50.630Z,85.10
2019-01-27T01:03:20.471Z,84.13
2019-01-27T01:05:50.095Z,84.97
2019-01-27T01:08:19.872Z,85.30
2019-01-27T01:10:49.594Z,85.57
2019-01-27T01:13:19.269Z,84.17
2019-01-27T01:15:48.972Z,84.93
2019-01-27T01:18:18.742Z,84.13
2019-01-27T01:20:48.472Z,83.90
2019-01-27T01:23:18.186Z,84.40
2019-01-27T01:25:48.019Z,85.73
2019-01-27T01:28:17.687Z,84.70
2019-01-27T01:30:47.531Z,85.17
2019-01-27T01:33:17.449Z,84.63
2019-01-27T01:35:47.158Z,84.60
2019-01-27T01:38:16.914Z,84.27
2019-01-27T01:40:47.966Z,84.77
2019-01-27T01:43:17.937Z,84.17
2019-01-27T01:45:47.690Z,84.47
2019-01-27T01:48:17.412Z,83.80
2019-01-27T01:50:47.059Z,88.50
2019-01-27T01:53:16.754Z,83.90
2019-01-27T01:55:46.429Z,83.87
2019-01-27T01:58:16.126Z,84.10
2019-01-27T02:00:45.786Z,83.07
2019-01-27T02:03:16.483Z,83.50
2019-01-27T02:05:46.137Z,84.70
2019-01-27T02:08:15.807Z,85.17
2019-01-27T02:10:45.610Z,92.63
2019-01-27T02:13:15.275Z,84.70
2019-01-27T02:16:07.614Z,83.87
2019-01-27T02:18:38.285Z,85.23
2019-01-27T02:21:08.368Z,92.67
2019-01-27T02:23:38.406Z,83.47
2019-01-27T02:26:08.874Z,84.13
2019-01-27T02:28:38.666Z,83.60
2019-01-27T02:31:08.491Z,84.77
2019-01-27T02:33:38.289Z,83.50
2019-01-27T02:36:08.019Z,85.07
2019-01-27T02:38:37.675Z,84.57
2019-01-27T02:41:07.494Z,84.47
2019-01-27T02:43:37.169Z,83.20
2019-01-27T02:46:07.165Z,84.57
2019-01-27T02:48:36.897Z,83.67
2019-01-27T02:51:06.645Z,83.87
2019-01-27T02:53:36.368Z,83.70
2019-01-27T02:56:06.319Z,84.40
2019-01-27T02:58:36.048Z,83.53
2019-01-27T03:01:05.982Z,85.10
2019-01-27T03:03:35.774Z,84.10
2019-01-27T03:06:16.728Z,84.13
2019-01-27T03:09:08.606Z,83.53
2019-01-27T03:11:51.087Z,83.57
2019-01-27T03:14:22.106Z,83.40
2019-01-27T03:16:53.299Z,83.37
2019-01-27T03:19:23.023Z,83.10
2019-01-27T03:21:52.853Z,83.23
2019-01-27T03:24:23.558Z,83.20
2019-01-27T03:26:54.247Z,84.63
2019-01-27T03:29:23.903Z,83.10
2019-01-27T03:31:53.577Z,84.13
2019-01-27T03:34:23.294Z,83.67
2019-01-27T03:36:53.204Z,84.70
2019-01-27T03:39:22.859Z,84.83
2019-01-27T03:41:52.650Z,83.53
2019-01-27T03:44:22.294Z,86.60
2019-01-27T03:46:52.135Z,83.40
2019-01-27T03:49:21.781Z,83.20
2019-01-27T03:51:51.431Z,83.63
2019-01-27T03:54:21.081Z,83.73
2019-01-27T03:56:50.807Z,83.87
2019-01-27T03:59:20.469Z,83.27
2019-01-27T04:01:50.142Z,83.40
2019-01-27T04:04:19.872Z,84.53
2019-01-27T04:06:49.532Z,85.97
2019-01-27T04:09:19.194Z,83.83
2019-01-27T04:11:48.918Z,86.00
2019-01-27T04:14:18.588Z,91.50
2019-01-27T04:16:48.218Z,84.20
2019-01-27T04:19:18.034Z,83.67
2019-01-27T04:21:47.699Z,83.70
2019-01-27T04:24:17.387Z,83.90
2019-01-27T04:26:47.153Z,83.13
2019-01-27T04:29:16.814Z,83.50
2019-01-27T04:31:46.457Z,83.43
2019-01-27T04:34:17.163Z,82.77
2019-01-27T04:36:46.812Z,84.20
2019-01-27T04:39:16.536Z,83.20
2019-01-27T04:41:46.250Z,83.23
2019-01-27T04:44:16.085Z,83.73
2019-01-27T04:46:45.757Z,83.20
2019-01-27T04:49:15.428Z,83.20
2019-01-27T04:51:45.116Z,83.37
2019-01-27T04:54:14.793Z,84.70
2019-01-27T04:56:44.452Z,82.77
2019-01-27T04:59:14.110Z,86.77
2019-01-27T05:01:43.847Z,87.90
2019-01-27T05:04:29.409Z,84.20
2019-01-27T05:06:59.158Z,82.97
2019-01-27T05:09:28.925Z,85.30
2019-01-27T05:11:58.567Z,84.73
2019-01-27T05:14:28.243Z,83.80
2019-01-27T05:16:57.968Z,84.03
2019-01-27T05:19:27.713Z,84.60
2019-01-27T05:21:57.502Z,83.13
2019-01-27T05:24:31.888Z,84.63
2019-01-27T05:27:02.386Z,85.73
2019-01-27T05:29:33.329Z,85.17
2019-01-27T05:32:04.039Z,86.07
2019-01-27T05:34:34.038Z,85.10
2019-01-27T05:37:03.821Z,84.13
2019-01-27T05:39:33.569Z,84.90
2019-01-27T05:42:03.410Z,83.33
2019-01-27T05:44:33.086Z,83.57
2019-01-27T05:47:02.757Z,85.73
2019-01-27T05:49:32.736Z,83.60
2019-01-27T05:52:02.619Z,83.63
2019-01-27T05:54:32.294Z,83.97
2019-01-27T05:57:01.969Z,83.57
2019-01-27T05:59:31.682Z,83.60
2019-01-27T06:02:01.434Z,84.27
2019-01-27T06:04:31.380Z,85.50
2019-01-27T06:07:01.234Z,84.40
2019-01-27T06:09:31.245Z,86.37
2019-01-27T06:12:00.923Z,87.60
2019-01-27T06:14:30.627Z,91.60
2019-01-27T06:17:00.417Z,85.90
2019-01-27T06:19:30.108Z,87.13
2019-01-27T06:21:59.756Z,87.27
2019-01-27T06:24:29.398Z,88.83
2019-01-27T06:26:59.072Z,85.00
2019-01-27T06:29:28.824Z,85.43
2019-01-27T06:31:58.502Z,85.87
2019-01-27T06:34:28.196Z,87.40
2019-01-27T06:36:57.922Z,86.27
2019-01-27T06:39:27.619Z,84.50
2019-01-27T06:41:57.278Z,85.40
2019-01-27T06:44:26.975Z,86.60
2019-01-27T06:46:56.705Z,88.53
2019-01-27T06:49:26.638Z,105.17
2019-01-27T06:51:56.361Z,90.60
2019-01-27T06:54:26.124Z,91.27
2019-01-27T06:56:56.049Z,84.77
2019-01-27T06:59:39.964Z,87.83
2019-01-27T07:02:16.118Z,95.30
2019-01-27T07:04:54.560Z,89.07
2019-01-27T07:07:38.151Z,94.23
2019-01-27T07:10:40.396Z,86.77
2019-01-27T07:13:18.989Z,84.90
2019-01-27T07:16:19.917Z,84.47
2019-01-27T07:19:17.594Z,88.27
2019-01-27T07:21:55.964Z,82.90
2019-01-27T07:24:41.034Z,84.57
2019-01-27T07:27:30.949Z,83.67
2019-01-27T07:30:31.718Z,85.33
2019-01-27T07:33:18.886Z,85.10
2019-01-27T07:36:19.856Z,83.70
2019-01-27T07:39:05.863Z,84.97
2019-01-27T07:41:57.590Z,84.63
2019-01-27T07:44:42.114Z,84.40
2019-01-27T07:47:23.439Z,83.93
2019-01-27T07:50:15.982Z,85.00
2019-01-27T07:52:58.313Z,83.47
2019-01-27T07:55:56.003Z,84.27
2019-01-27T07:58:32.363Z,84.67
2019-01-27T08:01:07.783Z,83.30
2019-01-27T08:03:51.625Z,85.77
2019-01-27T08:06:27.410Z,84.57
2019-01-27T08:09:16.173Z,83.03
2019-01-27T08:12:07.996Z,84.37
2019-01-27T08:14:59.592Z,83.73
2019-01-27T08:17:39.712Z,83.07
2019-01-27T08:20:27.779Z,83.73
2019-01-27T08:23:25.574Z,83.77
2019-01-27T08:26:01.411Z,85.23
2019-01-27T08:28:52.634Z,83.63
2019-01-27T08:31:28.703Z,83.70
2019-01-27T08:34:15.907Z,86.33
2019-01-27T08:36:54.012Z,83.97
2019-01-27T08:39:31.723Z,89.23
2019-01-27T08:42:20.484Z,87.33
2019-01-27T08:45:09.234Z,105.07
2019-01-27T08:47:39.143Z,87.27
2019-01-27T08:50:14.032Z,102.33
2019-01-27T08:52:43.713Z,88.90
2019-01-27T08:55:14.348Z,84.70
2019-01-27T08:57:44.115Z,94.77
2019-01-27T09:03:38.791Z,85.67
2019-01-27T09:06:34.823Z,86.43
2019-01-27T09:13:14.747Z,84.73
2019-01-27T09:16:27.219Z,84.40
2019-01-27T09:19:06.484Z,89.70
2019-01-27T09:22:11.622Z,85.27
2019-01-27T09:25:40.348Z,85.90
2019-01-27T09:28:50.795Z,85.40
2019-01-27T09:31:28.367Z,88.33
2019-01-27T09:34:21.603Z,87.93
2019-01-27T09:37:08.212Z,86.17
2019-01-27T09:39:55.615Z,87.63
2019-01-27T09:42:50.368Z,85.13
2019-01-27T09:45:33.306Z,86.57
2019-01-27T09:48:27.392Z,85.33
2019-01-27T09:51:07.459Z,85.17
2019-01-27T09:53:50.319Z,113.27
2019-01-27T09:56:37.807Z,101.37
2019-01-27T09:59:41.797Z,111.03
2019-01-27T10:02:34.900Z,103.97
2019-01-27T10:05:24.869Z,103.30
2019-01-27T10:08:03.149Z,100.53
2019-01-27T10:10:39.862Z,102.97
2019-01-27T10:13:27.264Z,100.87
2019-01-27T10:16:25.278Z,101.93
2019-01-27T10:19:01.804Z,101.73
2019-01-27T10:21:38.639Z,103.43
2019-01-27T10:24:24.513Z,101.97
2019-01-27T10:27:11.913Z,103.90
2019-01-27T10:29:52.506Z,102.37
2019-01-27T10:32:44.797Z,103.20
2019-01-27T10:35:32.227Z,111.77
2019-01-27T10:38:22.122Z,106.53
2019-01-27T10:41:09.380Z,105.63
2019-01-27T10:43:57.089Z,107.00
2019-01-27T10:46:39.588Z,106.93
2019-01-27T10:49:21.623Z,103.87
2019-01-27T10:52:05.759Z,105.20
2019-01-27T10:54:58.713Z,107.40
2019-01-27T10:57:40.303Z,107.07
2019-01-27T11:00:23.808Z,106.07
2019-01-27T11:03:12.587Z,105.30
2019-01-27T11:06:05.073Z,108.33
2019-01-27T11:08:42.531Z,105.97
2019-01-27T11:11:31.481Z,104.03
2019-01-27T11:14:23.423Z,107.30
2019-01-27T11:17:10.600Z,103.37
2019-01-27T11:19:46.542Z,106.00
2019-01-27T11:22:35.534Z,105.80
2019-01-27T11:25:23.851Z,106.63
2019-01-27T11:28:02.937Z,104.50
2019-01-27T11:30:48.789Z,109.93
2019-01-27T11:33:43.500Z,107.03
2019-01-27T11:36:26.166Z,105.83
2019-01-27T11:39:17.952Z,105.63
2019-01-27T11:42:05.377Z,108.80
2019-01-27T11:44:52.783Z,104.97
2019-01-27T11:47:40.180Z,110.40
2019-01-27T11:50:18.288Z,108.63
2019-01-27T11:52:52.455Z,105.10
2019-01-27T11:55:22.266Z,106.20
2019-01-27T11:57:51.922Z,109.27
2019-01-27T12:00:26.221Z,107.40
2019-01-27T12:02:55.886Z,105.03
2019-01-27T12:05:25.647Z,106.00
2019-01-27T12:07:55.383Z,113.87
2019-01-27T12:10:25.207Z,105.07
2019-01-27T12:12:54.940Z,104.83
2019-01-27T12:15:25.199Z,107.67
2019-01-27T12:17:54.930Z,105.67
2019-01-27T12:20:24.714Z,105.77
2019-01-27T12:22:55.409Z,104.53
2019-01-27T12:25:25.164Z,106.60
2019-01-27T12:27:54.834Z,109.87
2019-01-27T12:30:24.742Z,107.33
2019-01-27T12:32:57.335Z,110.57
2019-01-27T12:35:27.064Z,107.30
2019-01-27T12:37:56.747Z,104.90
2019-01-27T12:40:26.592Z,105.93
2019-01-27T12:42:56.402Z,105.40
2019-01-27T12:45:26.113Z,107.17
2019-01-27T12:47:55.827Z,107.47
2019-01-27T12:50:25.601Z,108.70
2019-01-27T12:52:58.179Z,112.23
2019-01-27T12:55:27.903Z,106.33
2019-01-27T12:57:59.607Z,106.47
2019-01-27T13:00:32.574Z,105.47
2019-01-27T13:03:02.447Z,106.13
2019-01-27T13:05:32.262Z,109.53
2019-01-27T13:08:02.047Z,107.20
2019-01-27T13:10:31.693Z,105.10
2019-01-27T13:13:01.495Z,111.07
2019-01-27T13:15:31.176Z,105.27
2019-01-27T13:18:01.632Z,107.23
2019-01-27T13:20:31.324Z,106.67
2019-01-27T13:23:01.818Z,105.30
2019-01-27T13:25:31.619Z,107.83
2019-01-27T13:28:01.463Z,106.17
2019-01-27T13:30:31.186Z,106.23
2019-01-27T13:33:03.308Z,107.27
2019-01-27T13:35:38.850Z,107.03
2019-01-27T13:38:07.742Z,105.30
2019-01-27T13:40:41.103Z,106.10
2019-01-27T13:43:10.823Z,104.80
2019-01-27T13:45:40.485Z,108.20
2019-01-27T13:48:10.227Z,105.33
2019-01-27T13:50:40.181Z,108.20
2019-01-27T13:53:09.922Z,105.80
2019-01-27T13:55:39.577Z,107.13
2019-01-27T13:58:09.424Z,108.37
2019-01-27T14:00:39.197Z,107.30
2019-01-27T14:03:08.869Z,107.73
2019-01-27T14:05:38.864Z,106.47
2019-01-27T14:08:10.306Z,109.60
2019-01-27T14:10:40.098Z,107.67
2019-01-27T14:13:09.836Z,107.37
2019-01-27T14:15:39.652Z,106.73
2019-01-27T14:18:10.783Z,112.47
2019-01-27T14:20:40.516Z,118.50
2019-01-27T14:23:10.210Z,100.63
2019-01-27T14:25:39.951Z,100.50
2019-01-27T14:28:09.770Z,96.57
2019-01-27T14:30:41.642Z,98.90
2019-01-27T14:33:11.404Z,95.43
2019-01-27T14:35:41.084Z,94.20
2019-01-27T14:38:10.844Z,93.87
2019-01-27T14:40:40.626Z,94.70
2019-01-27T14:43:10.351Z,95.80
2019-01-27T14:45:40.022Z,93.53
2019-01-27T14:48:09.833Z,93.63
2019-01-27T14:50:42.544Z,93.60
2019-01-27T14:53:14.657Z,93.80
2019-01-27T14:55:44.455Z,91.83
2019-01-27T14:58:14.186Z,101.40
2019-01-27T15:00:48.223Z,93.40
2019-01-27T15:03:17.949Z,96.97
2019-01-27T15:05:47.584Z,92.13
2019-01-27T15:08:17.364Z,92.37
2019-01-27T15:10:52.980Z,94.47
2019-01-27T15:13:28.212Z,91.13
2019-01-27T15:15:58.384Z,92.43
2019-01-27T15:18:29.807Z,91.50
2019-01-27T15:21:03.626Z,93.13
2019-01-27T15:23:33.337Z,90.90
2019-01-27T15:26:06.248Z,91.13
2019-01-27T15:28:36.004Z,91.07
2019-01-27T15:33:59.873Z,91.30
2019-01-27T15:36:29.575Z,89.77
2019-01-27T15:38:59.255Z,89.57
2019-01-27T15:41:28.912Z,89.83
2019-01-27T15:43:58.577Z,89.20
2019-01-27T15:46:28.296Z,90.27
2019-01-27T15:48:57.969Z,89.77
2019-01-27T15:51:27.759Z,89.83
2019-01-27T15:53:57.421Z,91.63
2019-01-27T15:56:27.077Z,91.00
2019-01-27T15:58:57.789Z,90.63
2019-01-27T16:01:27.441Z,91.50
2019-01-27T16:03:57.115Z,90.60
2019-01-27T16:06:26.856Z,91.43
2019-01-27T16:08:56.539Z,90.90
2019-01-27T16:11:26.294Z,90.27
2019-01-27T16:13:56.023Z,91.10
2019-01-27T16:16:25.686Z,90.27
2019-01-27T16:18:58.944Z,91.37
2019-01-27T16:21:26.703Z,90.47
2019-01-27T16:23:59.681Z,101.87
2019-01-27T16:26:29.343Z,96.70
2019-01-27T16:28:59.130Z,90.57
2019-01-27T16:31:47.887Z,89.47
2019-01-27T16:34:36.627Z,89.23
2019-01-27T16:37:06.423Z,96.43
2019-01-27T16:39:36.167Z,89.47
2019-01-27T16:42:05.946Z,92.73
2019-01-27T16:44:35.683Z,89.27
2019-01-27T16:47:05.611Z,90.03
2019-01-27T16:49:35.264Z,88.63
2019-01-27T16:52:05.285Z,94.40
2019-01-27T16:54:36.227Z,91.70
2019-01-27T16:57:06.071Z,88.47
2019-01-27T16:59:35.807Z,89.10
2019-01-27T17:02:05.732Z,90.40
2019-01-27T17:04:35.385Z,92.03
2019-01-27T17:07:05.706Z,89.57
2019-01-27T17:09:35.489Z,88.07
2019-01-27T17:12:05.503Z,88.93
2019-01-27T17:14:35.528Z,96.23
2019-01-27T17:17:05.375Z,93.37
2019-01-27T17:19:35.083Z,90.43
2019-01-27T17:22:04.830Z,94.20
2019-01-27T17:24:34.462Z,89.47
2019-01-27T17:27:04.197Z,90.60
2019-01-27T17:29:33.855Z,89.40
2019-01-27T17:32:04.069Z,88.70
2019-01-27T17:34:33.768Z,97.00
2019-01-27T17:37:03.708Z,91.70
2019-01-27T17:39:33.580Z,93.10
2019-01-27T17:42:03.401Z,100.73
2019-01-27T17:44:33.040Z,93.20
2019-01-27T17:47:15.288Z,88.93
2019-01-27T17:49:45.090Z,87.50
2019-01-27T17:52:14.779Z,87.70
2019-01-27T17:54:44.440Z,88.87
2019-01-27T17:57:48.158Z,88.07
2019-01-27T18:00:35.679Z,94.07
2019-01-27T18:03:21.470Z,91.83
2019-01-27T18:06:17.571Z,88.73
2019-01-27T18:08:54.656Z,88.70
2019-01-27T18:11:36.151Z,88.93
2019-01-27T18:14:13.048Z,88.93
2019-01-27T18:16:42.814Z,88.03
2019-01-27T18:19:12.509Z,89.47
2019-01-27T18:21:42.195Z,90.33
2019-01-27T18:24:11.939Z,87.90
2019-01-27T18:26:41.613Z,88.23
2019-01-27T18:29:11.247Z,90.13
2019-01-27T18:31:41.002Z,99.83
2019-01-27T18:34:10.646Z,87.33
2019-01-27T18:36:40.343Z,87.70
2019-01-27T18:39:11.837Z,88.23
2019-01-27T18:41:41.816Z,88.00
2019-01-27T18:44:11.565Z,91.03
2019-01-27T18:46:42.514Z,89.30
2019-01-27T18:49:12.237Z,88.87
2019-01-27T18:51:41.855Z,91.30
2019-01-27T18:54:24.583Z,88.67
2019-01-27T18:56:59.410Z,94.70
2019-01-27T18:59:43.195Z,89.80
2019-01-27T19:02:21.382Z,91.90
2019-01-27T19:05:15.568Z,87.57
2019-01-27T19:08:19.505Z,89.07
2019-01-27T19:11:00.124Z,87.30
2019-01-27T19:13:45.607Z,92.00
2019-01-27T19:16:22.955Z,98.53
2019-01-27T19:19:09.683Z,90.30
2019-01-27T19:21:48.813Z,87.50
2019-01-27T19:24:36.318Z,87.60
2019-01-27T19:27:21.599Z,95.07
2019-01-27T19:29:57.843Z,92.57
2019-01-27T19:32:49.677Z,97.10
2019-01-27T19:35:41.219Z,89.87
2019-01-27T19:38:16.642Z,88.43
2019-01-27T19:41:04.030Z,97.83
2019-01-27T19:43:55.430Z,92.17
2019-01-27T19:46:42.671Z,89.07
2019-01-27T19:49:30.332Z,90.13
2019-01-27T19:52:20.043Z,88.43
2019-01-27T19:55:07.255Z,88.50
2019-01-27T19:58:05.126Z,85.40
2019-01-27T20:00:52.326Z,88.23
2019-01-27T20:03:46.966Z,88.07
2019-01-27T20:06:24.146Z,91.17
2019-01-27T20:09:18.023Z,87.57
2019-01-27T20:11:59.001Z,87.47
2019-01-27T20:14:46.198Z,85.13
2019-01-27T20:17:44.042Z,88.10
2019-01-27T20:20:26.760Z,86.97
2019-01-27T20:23:08.782Z,85.03
2019-01-27T20:25:57.490Z,86.70
2019-01-27T20:28:44.966Z,87.03
2019-01-27T20:31:24.858Z,85.10
2019-01-27T20:34:09.518Z,87.07
2019-01-27T20:36:58.305Z,87.27
2019-01-27T20:39:33.446Z,84.53
2019-01-27T20:42:37.429Z,88.63
2019-01-27T20:45:18.790Z,86.20
2019-01-27T20:47:57.767Z,84.80
2019-01-27T20:50:41.667Z,86.73
2019-01-27T20:53:36.205Z,88.90
2019-01-27T20:56:34.007Z,85.17
2019-01-27T20:59:17.449Z,90.67
2019-01-27T21:02:07.091Z,88.00
2019-01-27T21:04:58.691Z,85.07
2019-01-27T21:07:33.810Z,88.30
2019-01-27T21:10:21.371Z,85.07
2019-01-27T21:13:01.615Z,97.37
2019-01-27T21:15:44.555Z,88.67
2019-01-27T21:18:32.735Z,84.17
2019-01-27T21:21:03.422Z,83.90
2019-01-27T21:23:33.046Z,86.43
2019-01-27T21:26:02.779Z,93.50
2019-01-27T21:28:32.394Z,92.50
2019-01-27T21:31:02.166Z,84.63
2019-01-27T21:33:31.776Z,88.13
2019-01-27T21:36:01.408Z,87.17
2019-01-27T21:38:31.026Z,87.67
2019-01-27T21:41:00.724Z,90.03
2019-01-27T21:43:30.347Z,85.00
2019-01-27T21:46:00.049Z,85.47
2019-01-27T21:48:29.675Z,84.90
2019-01-27T21:50:59.306Z,86.53
2019-01-27T21:53:28.932Z,91.63
2019-01-27T21:55:58.649Z,85.70
2019-01-27T21:58:28.256Z,87.77
2019-01-27T22:00:57.891Z,94.27
2019-01-27T22:03:27.525Z,89.17
2019-01-27T22:05:57.201Z,87.87
2019-01-27T22:08:26.898Z,85.80
2019-01-27T22:10:56.518Z,88.77
2019-01-27T22:13:26.207Z,84.40
2019-01-27T22:15:55.830Z,87.77
2019-01-27T22:18:25.454Z,92.10
2019-01-27T22:20:55.155Z,88.83
2019-01-27T22:23:24.775Z,86.53
2019-01-27T22:25:54.411Z,89.47
2019-01-27T22:28:24.099Z,89.23
2019-01-27T22:30:53.879Z,84.27
2019-01-27T22:33:23.583Z,84.63
2019-01-27T22:35:53.215Z,84.87
2019-01-27T22:38:22.839Z,94.93
2019-01-27T22:40:52.518Z,85.93
2019-01-27T22:43:22.176Z,87.20
2019-01-27T22:45:51.795Z,85.97
2019-01-27T22:48:21.410Z,92.37
2019-01-27T22:50:51.030Z,86.73
2019-01-27T22:53:20.735Z,86.73
2019-01-27T22:55:50.351Z,85.33
2019-01-27T22:58:19.975Z,86.60
2019-01-27T23:01:01.303Z,88.23
2019-01-27T23:03:36.646Z,85.63
2019-01-27T23:06:06.546Z,84.77
2019-01-27T23:08:36.182Z,83.93
2019-01-27T23:11:06.038Z,84.50
2019-01-27T23:13:35.738Z,85.80
2019-01-27T23:16:05.527Z,83.60
2019-01-27T23:18:35.138Z,87.43
2019-01-27T23:21:04.935Z,84.23
2019-01-27T23:23:34.554Z,84.13
2019-01-27T23:26:04.331Z,86.13
2019-01-27T23:28:33.947Z,88.07
2019-01-27T23:31:03.706Z,85.10
2019-01-27T23:33:33.341Z,85.63
2019-01-27T23:36:03.031Z,86.43
2019-01-27T23:38:32.731Z,87.33
2019-01-27T23:41:02.356Z,85.80
2019-01-27T23:43:31.962Z,91.13
2019-01-27T23:46:01.651Z,87.67
2019-01-27T23:48:31.446Z,85.60
2019-01-27T23:51:01.148Z,93.77
2019-01-27T23:53:30.855Z,86.77
2019-01-27T23:56:00.474Z,86.57
2019-01-27T23:58:30.178Z,86.90
